CheckWX is a tool to help pilots better visualize weather data.  It is not intended as a substitute for an official pre-flight weather briefing.

01:20:22 UTC

EGGW TAF
London Luton Airport
London, United Kingdom
TAF EGGW 142303Z 1500/1524 23008KT 9999 SCT004 BKN010 BECMG 1500/1502 BKN004 TEMPO 1500/1508 3000 -DZ BR BKN001 PROB30 TEMPO 1500/1506 0300 FG BECMG 1509/1512 FEW004 SCT020 PROB30 TEMPO 1513/1518 8000 SHRA

Oct-15@
00:00 UTC

Oct-15 @ 00:00 UTC

Oct-16@
00:00 UTC

Oct-16 @ 00:00 UTC

TAF EGGW 142303Z 1500/1524 23008KT 9999 SCT004 BKN010
Wind
  • 230° at 8 KTS
Cloud Levels
  • Scattered at 400' AGL
  • Broken at 1,000' AGL

Oct-15@
00:00 UTC

Oct-15 @ 00:00 UTC

Oct-15@
06:00 UTC

Oct-15 @ 06:00 UTC

PROB30 TEMPO 1500/1506 0300 FG

Temporary - 30% Likelihood

Temporary - 30% Likelihood during this time.

Conditions
Fog

Oct-15@
00:00 UTC

Oct-15 @ 00:00 UTC

Oct-15@
08:00 UTC

Oct-15 @ 08:00 UTC

TEMPO 1500/1508 3000 -DZ BR BKN001

Temporary

Temporary Changes expected for less than half the time period

Conditions
Light Drizzle, Mist
Cloud Levels
  • Broken at 100' AGL

Oct-15@
00:00 UTC

Oct-15 @ 00:00 UTC

Oct-15@
09:00 UTC

Oct-15 @ 09:00 UTC

BECMG 1500/1502 BKN004

Becoming

Becoming Conditions expected by Tue, Oct 15, 2019 @ 02:00 UTC

Wind
  • 230° at 8 KTS
Cloud Levels
  • Broken at 400' AGL

Oct-15@
09:00 UTC

Oct-15 @ 09:00 UTC

Oct-16@
00:00 UTC

Oct-16 @ 00:00 UTC

BECMG 1509/1512 FEW004 SCT020

Becoming

Becoming Conditions expected by Tue, Oct 15, 2019 @ 12:00 UTC

Wind
  • 230° at 8 KTS
Cloud Levels
  • Few at 400' AGL
  • Scattered at 2,000' AGL

Oct-15@
13:00 UTC

Oct-15 @ 13:00 UTC

Oct-15@
18:00 UTC

Oct-15 @ 18:00 UTC

PROB30 TEMPO 1513/1518 8000 SHRA

Temporary - 30% Likelihood

Temporary - 30% Likelihood during this time.

Conditions
Rain